Time;durP1;ratioP1;P1;durP2;ratioP2;P2;SDS_P1;SDS_P2;PMS_P1;PMS_P2;Temp;Humidity;BMP_temperature;BMP_pressure;BME280_temperature;BME280_humidity;BME280_pressure;Samples;Min_cycle;Max_cycle;Signal;HPM_P1;HPM_P2
2021/05/11 00:02:48;;;;;;;5.45;2.60;;;16.80;98.20;;;;;;5082683;28;20418;-46
2021/05/11 00:05:16;;;;;;;5.72;2.90;;;16.60;99.00;;;;;;5049076;28;20041;-46
2021/05/11 00:07:43;;;;;;;4.30;2.65;;;16.60;99.50;;;;;;5065393;28;20049;-46
2021/05/11 00:10:11;;;;;;;4.97;2.85;;;16.70;99.70;;;;;;5065600;28;20384;-47
2021/05/11 00:12:38;;;;;;;4.88;2.50;;;16.70;99.90;;;;;;5048482;28;20483;-47
2021/05/11 00:15:06;;;;;;;4.80;3.15;;;16.70;99.90;;;;;;5050160;28;20045;-46
2021/05/11 00:17:34;;;;;;;4.68;3.08;;;16.80;99.90;;;;;;5048572;28;20561;-46
2021/05/11 00:20:01;;;;;;;6.93;3.38;;;16.80;99.90;;;;;;5048905;28;20048;-48
2021/05/11 00:22:28;;;;;;;6.38;2.95;;;16.90;99.90;;;;;;5048533;28;20441;-46
2021/05/11 00:24:56;;;;;;;4.72;2.70;;;16.90;99.90;;;;;;5049788;28;20541;-48
2021/05/11 00:27:23;;;;;;;4.22;2.80;;;16.90;99.90;;;;;;5048626;28;20082;-48
2021/05/11 00:29:50;;;;;;;5.95;2.63;;;16.90;99.90;;;;;;5032465;28;20041;-46
2021/05/11 00:32:18;;;;;;;3.83;2.58;;;16.90;99.90;;;;;;5049724;28;20072;-46
2021/05/11 00:34:45;;;;;;;4.80;3.10;;;16.80;99.90;;;;;;5048720;28;20087;-46
2021/05/11 00:37:12;;;;;;;7.43;3.00;;;16.80;99.90;;;;;;5049168;28;20395;-48
2021/05/11 00:39:39;;;;;;;6.85;2.95;;;16.80;99.90;;;;;;5032156;28;20391;-51
2021/05/11 00:42:07;;;;;;;7.43;3.28;;;16.60;99.90;;;;;;5048028;28;20041;-51
2021/05/11 00:44:34;;;;;;;4.85;3.28;;;16.50;99.90;;;;;;5031658;28;20057;-50
2021/05/11 00:47:04;;;;;;;5.45;2.75;;;16.50;99.90;;;;;;5048494;28;20176;-48
2021/05/11 00:49:33;;;;;;;6.40;2.85;;;16.50;99.90;;;;;;5063935;28;20104;-49
2021/05/11 00:52:04;;;;;;;6.28;2.90;;;16.50;99.90;;;;;;5031993;28;20060;-48
2021/05/11 00:54:32;;;;;;;4.60;2.92;;;16.50;99.90;;;;;;5064349;28;20103;-47
2021/05/11 00:57:02;;;;;;;6.22;3.75;;;16.60;99.90;;;;;;5048028;28;20041;-47
2021/05/11 00:59:32;;;;;;;7.75;3.88;;;16.70;99.90;;;;;;5031700;28;20064;-47
2021/05/11 01:02:03;;;;;;;6.10;3.35;;;16.70;99.90;;;;;;5031875;28;20060;-47
2021/05/11 01:04:31;;;;;;;5.88;2.92;;;16.70;99.90;;;;;;5015155;28;20453;-49
2021/05/11 01:06:58;;;;;;;9.25;3.45;;;16.80;99.90;;;;;;5031660;28;20045;-47
2021/05/11 01:09:26;;;;;;;5.50;2.95;;;16.70;99.90;;;;;;5047290;28;20048;-50
2021/05/11 01:11:55;;;;;;;9.98;4.22;;;16.60;99.90;;;;;;5015250;28;20478;-48
2021/05/11 01:14:26;;;;;;;7.93;4.03;;;16.50;99.90;;;;;;5017414;28;20050;-48
2021/05/11 01:16:56;;;;;;;8.43;3.67;;;16.60;99.90;;;;;;5035073;28;20103;-46
2021/05/11 01:27:54;;;;;;;7.72;4.03;;;16.50;99.90;;;;;;5013332;28;20049;-46
2021/05/11 01:33:14;;;;;;;5.80;3.75;;;16.50;99.90;;;;;;5035182;28;20050;-50
2021/05/11 01:52:45;;;;;;;13.95;6.72;;;16.40;99.90;;;;;;5017444;28;20459;-46
2021/05/11 01:55:24;;;;;;;9.93;3.58;;;16.30;99.90;;;;;;5032295;28;20480;-46
2021/05/11 02:22:44;;;;;;;6.18;4.00;;;16.90;99.90;;;;;;5016542;28;20046;-47
2021/05/11 02:25:15;;;;;;;6.68;3.90;;;16.80;99.90;;;;;;4999791;28;20061;-47
2021/05/11 02:27:45;;;;;;;9.02;4.57;;;16.90;99.90;;;;;;5033106;28;20041;-46
2021/05/11 02:30:15;;;;;;;8.07;4.10;;;16.90;99.90;;;;;;5017503;28;20060;-46
2021/05/11 02:32:43;;;;;;;8.73;3.75;;;16.80;99.90;;;;;;5016478;28;20053;-47
2021/05/11 02:35:14;;;;;;;8.20;3.95;;;16.80;99.90;;;;;;5033106;28;20050;-46
2021/05/11 02:37:42;;;;;;;8.15;4.43;;;16.60;99.90;;;;;;5000000;28;20049;-46
2021/05/11 02:40:12;;;;;;;10.05;4.60;;;16.40;99.90;;;;;;5032922;28;20053;-46
2021/05/11 02:42:43;;;;;;;8.70;4.65;;;16.20;99.90;;;;;;5033834;28;20048;-46
2021/05/11 02:45:13;;;;;;;8.50;4.45;;;16.00;99.90;;;;;;5033325;28;20064;-46
2021/05/11 02:47:51;;;;;;;13.38;6.32;;;15.90;99.90;;;;;;5016240;28;20634;-47
2021/05/11 02:50:22;;;;;;;9.18;4.45;;;16.00;99.90;;;;;;5034318;28;20076;-47
2021/05/11 02:52:49;;;;;;;8.02;5.03;;;16.00;99.90;;;;;;5016382;28;20103;-48
2021/05/11 02:55:18;;;;;;;11.98;5.32;;;16.10;99.90;;;;;;5032667;28;20500;-47
2021/05/11 02:57:46;;;;;;;13.20;7.10;;;16.20;99.90;;;;;;4999959;28;20049;-46
2021/05/11 03:00:19;;;;;;;10.95;6.15;;;16.30;99.90;;;;;;5032780;28;20064;-46
2021/05/11 03:02:46;;;;;;;26.60;6.72;;;16.30;99.90;;;;;;5015470;28;20561;-49
2021/05/11 03:05:15;;;;;;;13.95;6.35;;;16.40;99.90;;;;;;5032430;28;20045;-46
2021/05/11 03:07:43;;;;;;;10.40;5.10;;;16.40;99.90;;;;;;5032122;28;20042;-45
2021/05/11 03:10:12;;;;;;;15.80;6.35;;;16.40;99.90;;;;;;5032575;28;20491;-47
2021/05/11 03:12:40;;;;;;;12.52;6.28;;;16.40;99.90;;;;;;5014950;28;20037;-47
2021/05/11 03:15:09;;;;;;;10.20;5.43;;;16.50;99.90;;;;;;5015991;28;20077;-45
2021/05/11 03:17:37;;;;;;;10.07;6.47;;;16.40;99.90;;;;;;5032143;28;20499;-46
2021/05/11 03:20:06;;;;;;;13.77;7.22;;;16.40;99.90;;;;;;5028948;28;20108;-47
2021/05/11 03:22:34;;;;;;;9.48;5.43;;;16.40;99.90;;;;;;5033030;28;20049;-47
2021/05/11 03:25:01;;;;;;;8.00;4.90;;;16.60;99.90;;;;;;5033081;28;20111;-47
2021/05/11 03:27:29;;;;;;;8.50;4.75;;;16.50;99.90;;;;;;5015594;28;20056;-46
2021/05/11 03:29:56;;;;;;;20.20;6.63;;;16.40;99.90;;;;;;5016322;28;20073;-48
2021/05/11 03:32:23;;;;;;;13.15;7.15;;;16.30;99.90;;;;;;5032039;28;20155;-46
2021/05/11 03:34:51;;;;;;;19.40;6.72;;;16.20;99.90;;;;;;5033565;28;20464;-46
2021/05/11 03:37:18;;;;;;;10.93;6.32;;;16.30;99.90;;;;;;5015298;28;20041;-46
2021/05/11 03:39:46;;;;;;;11.38;5.30;;;16.30;99.90;;;;;;5021213;28;20498;-46
2021/05/11 03:42:21;;;;;;;9.68;5.13;;;16.30;99.90;;;;;;5032934;28;20407;-46
2021/05/11 03:44:52;;;;;;;12.30;5.78;;;16.50;99.90;;;;;;5013870;28;20504;-46
2021/05/11 03:47:21;;;;;;;8.05;4.80;;;16.60;99.90;;;;;;5031923;28;20045;-45
2021/05/11 03:49:49;;;;;;;16.20;4.93;;;16.70;99.90;;;;;;5031594;28;20132;-46
2021/05/11 03:52:17;;;;;;;11.75;5.32;;;16.90;99.90;;;;;;5031863;28;20038;-46
2021/05/11 03:54:45;;;;;;;6.80;4.47;;;16.90;99.90;;;;;;5029644;28;20092;-46
2021/05/11 03:57:13;;;;;;;8.88;6.03;;;16.90;99.90;;;;;;5031490;28;20053;-47
2021/05/11 03:59:41;;;;;;;10.80;5.97;;;17.00;99.90;;;;;;5031718;28;20487;-46
2021/05/11 04:02:09;;;;;;;14.70;5.60;;;17.00;99.90;;;;;;5032510;28;20046;-47
2021/05/11 04:04:37;;;;;;;7.57;4.78;;;17.00;99.90;;;;;;5015466;28;20403;-47
2021/05/11 04:07:06;;;;;;;10.80;5.85;;;17.00;99.90;;;;;;5031585;28;20042;-50
2021/05/11 04:09:40;;;;;;;9.70;5.50;;;17.10;99.90;;;;;;5014767;28;20439;-46
2021/05/11 04:17:42;;;;;;;11.60;5.88;;;17.10;99.90;;;;;;5030609;28;20082;-47
2021/05/11 04:20:12;;;;;;;15.52;5.88;;;17.20;99.90;;;;;;4999223;28;20049;-46
2021/05/11 04:22:40;;;;;;;9.57;4.90;;;17.40;99.90;;;;;;5032495;28;20679;-47
2021/05/11 04:25:09;;;;;;;13.05;6.85;;;17.30;99.90;;;;;;5015215;28;20049;-47
2021/05/11 04:27:37;;;;;;;10.43;5.63;;;17.50;99.90;;;;;;5031131;28;20499;-49
2021/05/11 04:30:06;;;;;;;12.65;6.88;;;17.40;99.90;;;;;;5031649;28;20053;-46
2021/05/11 04:32:34;;;;;;;10.15;5.60;;;17.40;99.90;;;;;;5031359;28;20053;-46
2021/05/11 04:35:02;;;;;;;11.80;6.05;;;17.50;99.90;;;;;;5027260;28;20049;-46
2021/05/11 04:37:30;;;;;;;11.45;5.30;;;17.60;99.90;;;;;;5031086;28;20111;-46
2021/05/11 04:39:58;;;;;;;10.38;5.55;;;17.70;99.90;;;;;;5031330;28;20419;-49
2021/05/11 04:42:26;;;;;;;12.15;5.78;;;17.90;99.90;;;;;;5031088;28;20053;-48
2021/05/11 04:44:58;;;;;;;15.43;5.38;;;18.10;99.90;;;;;;5015396;28;20045;-63
2021/05/11 04:47:47;;;;;;;12.82;5.68;;;18.30;99.90;;;;;;4998698;28;20049;-47
2021/05/11 04:50:23;;;;;;;12.25;5.63;;;18.40;99.90;;;;;;5032975;28;20487;-47
2021/05/11 04:52:51;;;;;;;8.88;4.80;;;18.60;99.90;;;;;;5036063;28;20046;-47
2021/05/11 04:55:19;;;;;;;17.60;5.65;;;18.80;99.90;;;;;;5018549;28;20103;-46
2021/05/11 04:57:47;;;;;;;8.82;5.40;;;19.00;99.90;;;;;;5034538;28;20372;-46
2021/05/11 05:00:17;;;;;;;14.18;6.30;;;18.80;99.90;;;;;;5035272;28;20693;-47
2021/05/11 05:02:47;;;;;;;12.52;5.20;;;19.10;99.90;;;;;;5035874;28;20155;-46
2021/05/11 05:05:15;;;;;;;10.30;5.03;;;19.00;99.90;;;;;;5034836;28;20053;-46
2021/05/11 05:07:43;;;;;;;15.18;5.80;;;19.00;99.90;;;;;;5034515;28;20500;-46
2021/05/11 05:10:12;;;;;;;10.65;6.03;;;19.20;99.90;;;;;;5034817;28;20045;-46
2021/05/11 05:12:45;;;;;;;8.35;5.43;;;19.40;99.90;;;;;;5034433;28;20460;-46
2021/05/11 05:15:14;;;;;;;8.98;4.25;;;19.60;99.90;;;;;;5035727;28;20053;-46
2021/05/11 05:17:42;;;;;;;10.95;4.65;;;19.90;99.90;;;;;;5035767;28;20061;-46
2021/05/11 05:20:11;;;;;;;8.70;4.30;;;19.90;99.90;;;;;;5002335;28;20073;-47
2021/05/11 05:22:39;;;;;;;20.40;5.78;;;19.70;99.90;;;;;;5034302;28;20065;-46
2021/05/11 05:25:15;;;;;;;11.23;6.07;;;19.50;99.90;;;;;;5034152;28;20049;-46
2021/05/11 05:27:57;;;;;;;9.60;5.05;;;19.30;99.90;;;;;;5034027;28;20049;-48
2021/05/11 05:30:25;;;;;;;10.60;5.78;;;19.10;99.90;;;;;;5001981;28;20053;-46
2021/05/11 05:32:54;;;;;;;9.85;4.95;;;18.80;99.90;;;;;;5001460;28;20140;-46
2021/05/11 05:35:22;;;;;;;9.55;5.65;;;18.70;99.90;;;;;;5034465;28;20084;-46
2021/05/11 05:37:50;;;;;;;10.60;5.45;;;18.80;99.90;;;;;;5035262;28;20069;-46
2021/05/11 05:40:20;;;;;;;10.07;5.70;;;19.00;99.90;;;;;;5034058;28;20087;-46
2021/05/11 05:42:48;;;;;;;10.88;6.45;;;18.90;99.90;;;;;;5033894;28;20140;-46
2021/05/11 05:45:17;;;;;;;11.95;6.43;;;18.80;99.90;;;;;;5034284;28;20125;-46
2021/05/11 05:47:51;;;;;;;12.30;6.03;;;19.00;99.90;;;;;;5017593;28;20046;-48
2021/05/11 05:50:26;;;;;;;14.45;6.22;;;19.30;99.90;;;;;;5017830;28;20052;-51
2021/05/11 05:53:03;;;;;;;11.82;6.10;;;19.50;99.90;;;;;;5033876;28;20095;-46
2021/05/11 05:55:31;;;;;;;11.95;5.25;;;19.80;99.90;;;;;;5035258;28;20067;-49
2021/05/11 05:57:59;;;;;;;8.60;4.55;;;20.20;99.90;;;;;;5033639;28;20514;-47
2021/05/11 06:00:27;;;;;;;9.98;5.72;;;20.60;99.90;;;;;;5017160;28;20053;-51
2021/05/11 06:03:03;;;;;;;7.85;4.53;;;20.70;99.90;;;;;;5016815;28;20103;-63
2021/05/11 06:05:32;;;;;;;15.38;5.05;;;20.90;99.90;;;;;;5001302;28;20061;-47
2021/05/11 06:08:00;;;;;;;10.05;5.28;;;21.10;99.90;;;;;;5017194;28;20045;-47
2021/05/11 06:10:30;;;;;;;10.38;4.68;;;21.50;99.90;;;;;;5033833;28;20487;-46
2021/05/11 06:13:12;;;;;;;10.40;6.07;;;21.60;99.90;;;;;;5017481;28;20415;-46
2021/05/11 06:18:27;;;;;;;;;;;21.50;99.90;;;;;;5033747;28;20407;-47
2021/05/11 06:20:55;;;;;;;9.38;4.88;;;21.40;99.90;;;;;;5016934;28;19921;-63
2021/05/11 06:23:23;;;;;;;9.98;5.00;;;21.50;99.90;;;;;;5034179;28;20126;-48
2021/05/11 06:25:51;;;;;;;7.93;4.72;;;21.50;99.90;;;;;;5033364;28;20491;-47
2021/05/11 06:28:19;;;;;;;11.13;5.25;;;21.80;99.90;;;;;;5032914;28;20050;-46
2021/05/11 06:30:47;;;;;;;9.75;4.50;;;22.00;99.90;;;;;;5000978;28;20050;-46
2021/05/11 06:33:15;;;;;;;9.10;4.82;;;22.20;99.90;;;;;;5016596;28;20060;-46
2021/05/11 06:35:44;;;;;;;13.63;6.03;;;22.40;99.90;;;;;;5033326;28;20057;-47
2021/05/11 06:38:12;;;;;;;11.40;4.60;;;22.50;99.90;;;;;;5016458;28;20080;-46
2021/05/11 06:40:42;;;;;;;9.20;4.75;;;22.70;99.90;;;;;;5032905;28;20522;-46
2021/05/11 06:43:10;;;;;;;14.70;5.57;;;22.80;99.90;;;;;;5016193;28;20483;-47
2021/05/11 06:48:29;;;;;;;8.80;5.70;;;22.60;99.90;;;;;;5009543;28;20077;-46
2021/05/11 06:53:44;;;;;;;9.70;4.72;;;22.90;99.90;;;;;;5016266;28;20056;-51
2021/05/11 06:56:14;;;;;;;10.38;5.85;;;23.10;99.70;;;;;;5016811;28;20056;-49
2021/05/11 06:58:42;;;;;;;9.23;4.47;;;23.30;99.30;;;;;;5032640;28;20145;-46
2021/05/11 07:01:11;;;;;;;11.65;4.32;;;23.20;99.20;;;;;;5016239;28;20049;-48
2021/05/11 07:03:39;;;;;;;8.48;4.03;;;23.50;99.00;;;;;;5032097;28;20049;-46
2021/05/11 07:06:08;;;;;;;15.70;5.55;;;23.40;98.30;;;;;;5033980;28;20100;-45
2021/05/11 07:08:45;;;;;;;7.00;4.53;;;23.50;98.00;;;;;;4999504;28;20048;-45
2021/05/11 07:13:49;;;;;;;8.80;5.10;;;23.50;98.00;;;;;;5032287;28;20091;-45
2021/05/11 07:16:18;;;;;;;10.80;4.70;;;23.70;97.90;;;;;;5032531;28;20111;-45
2021/05/11 07:18:46;;;;;;;8.13;4.32;;;24.10;97.40;;;;;;5031973;28;20065;-45
2021/05/11 07:21:15;;;;;;;9.68;4.68;;;24.00;97.50;;;;;;5015958;28;20050;-45
2021/05/11 07:23:43;;;;;;;8.13;5.22;;;24.20;97.50;;;;;;5031776;28;20081;-45
2021/05/11 07:26:26;;;;;;;7.28;4.38;;;24.30;97.10;;;;;;5033361;28;20124;-45
2021/05/11 07:31:29;;;;;;;7.00;4.13;;;24.70;96.00;;;;;;5032629;28;20060;-46
2021/05/11 07:33:58;;;;;;;9.88;3.90;;;24.80;95.50;;;;;;5031788;28;20096;-49
2021/05/11 07:36:27;;;;;;;13.43;4.40;;;24.60;94.30;;;;;;5031879;28;20045;-46
2021/05/11 07:38:54;;;;;;;6.05;3.20;;;24.50;93.60;;;;;;5031635;28;20133;-45
2021/05/11 07:41:23;;;;;;;7.75;3.33;;;24.60;93.70;;;;;;5015662;28;20241;-45
2021/05/11 07:43:55;;;;;;;7.13;3.97;;;24.60;94.00;;;;;;5031271;28;20057;-45
2021/05/11 07:46:36;;;;;;;7.43;3.60;;;24.60;94.30;;;;;;5033075;28;20474;-45
2021/05/11 07:49:22;;;;;;;11.88;4.28;;;24.80;93.50;;;;;;5032535;28;20136;-45
2021/05/11 08:16:29;;;;;;;12.00;3.88;;;24.70;89.30;;;;;;5015123;28;20049;-45
2021/05/11 08:19:05;;;;;;;7.57;2.78;;;24.90;89.00;;;;;;4998227;28;20562;-45
2021/05/11 08:22:01;;;;;;;11.50;3.47;;;25.20;88.60;;;;;;4984556;28;20045;-45
2021/05/11 08:27:30;;;;;;;8.90;3.58;;;25.70;88.90;;;;;;5034987;28;20053;-45
2021/05/11 08:29:58;;;;;;;7.22;3.00;;;25.40;87.10;;;;;;5036085;28;20487;-46
2021/05/11 08:32:26;;;;;;;6.85;3.50;;;25.30;85.90;;;;;;5018386;28;20075;-47
2021/05/11 08:34:54;;;;;;;6.22;3.65;;;25.40;89.20;;;;;;5019171;28;20443;-45
2021/05/11 08:37:22;;;;;;;9.77;3.60;;;25.30;90.20;;;;;;5034835;28;20049;-45
2021/05/11 08:39:53;;;;;;;6.90;3.30;;;25.30;89.50;;;;;;5002200;28;20049;-45
2021/05/11 08:42:22;;;;;;;10.90;4.25;;;25.50;90.10;;;;;;5018679;28;20076;-45
2021/05/11 08:44:51;;;;;;;11.00;4.13;;;25.60;90.10;;;;;;5036450;28;20054;-45
2021/05/11 08:47:20;;;;;;;7.22;3.33;;;25.70;89.50;;;;;;5034305;28;20080;-45
2021/05/11 08:49:49;;;;;;;7.63;3.75;;;25.80;88.80;;;;;;5033204;28;20442;-46
2021/05/11 08:52:47;;;;;;;6.60;3.30;;;25.90;88.50;;;;;;5018377;28;20045;-45
2021/05/11 09:15:39;;;;;;;7.60;3.33;;;25.70;88.00;;;;;;5034376;28;19921;-45
2021/05/11 09:26:10;;;;;;;6.60;3.80;;;26.00;85.40;;;;;;4998156;28;20512;-45
2021/05/11 09:28:48;;;;;;;5.78;2.97;;;26.10;85.50;;;;;;5010510;28;20450;-45
2021/05/11 09:56:47;;;;;;;6.47;3.30;;;26.20;81.40;;;;;;5017186;28;20053;-45
2021/05/11 10:48:33;;;;;;;4.38;2.42;;;26.30;77.90;;;;;;5033603;28;20046;-45
2021/05/11 10:51:17;;;;;;;8.60;3.10;;;26.40;80.00;;;;;;5016290;28;20488;-46
2021/05/11 10:53:45;;;;;;;9.63;3.40;;;26.40;81.20;;;;;;5015922;28;20136;-45
2021/05/11 10:59:19;;;;;;;6.53;3.22;;;26.50;80.60;;;;;;5032324;28;20076;-45
2021/05/11 11:01:50;;;;;;;8.43;4.15;;;26.40;78.80;;;;;;4996551;28;20050;-45
2021/05/11 11:04:21;;;;;;;6.28;3.83;;;26.30;80.60;;;;;;5031821;28;20046;-46
2021/05/11 11:06:58;;;;;;;7.45;3.53;;;26.20;79.80;;;;;;5032105;28;20052;-46
2021/05/11 11:09:27;;;;;;;11.32;3.63;;;26.20;82.50;;;;;;5032611;28;20041;-47
2021/05/11 11:11:57;;;;;;;9.85;3.78;;;25.90;80.60;;;;;;5016219;28;20057;-46
2021/05/11 11:14:25;;;;;;;9.60;4.13;;;25.70;81.70;;;;;;5031680;28;20049;-47
2021/05/11 11:17:05;;;;;;;9.05;4.85;;;25.70;84.10;;;;;;4999854;28;20538;-47
2021/05/11 11:19:33;;;;;;;11.75;4.18;;;25.90;82.90;;;;;;4999582;28;20073;-46
2021/05/11 11:24:57;;;;;;;7.25;4.22;;;26.10;81.80;;;;;;5004189;28;20506;-56
2021/05/11 11:27:26;;;;;;;10.05;4.13;;;26.10;82.20;;;;;;5013673;28;20049;-52
2021/05/11 11:30:10;;;;;;;11.27;4.05;;;25.60;80.30;;;;;;5033356;28;20053;-46
2021/05/11 11:32:39;;;;;;;12.27;3.55;;;25.50;82.40;;;;;;5032993;28;20171;-48
2021/05/11 11:35:10;;;;;;;5.05;2.75;;;25.50;81.40;;;;;;5015367;28;20060;-47
2021/05/11 11:37:39;;;;;;;10.40;2.90;;;25.60;80.70;;;;;;5032745;28;20053;-46
2021/05/11 11:40:10;;;;;;;5.35;2.83;;;25.60;81.30;;;;;;5032822;28;20381;-49
2021/05/11 11:42:41;;;;;;;5.38;2.50;;;25.70;79.00;;;;;;4998006;28;20188;-47
2021/05/11 11:45:20;;;;;;;5.78;3.13;;;25.60;75.60;;;;;;5033005;28;20136;-46
2021/05/11 11:48:01;;;;;;;8.18;3.08;;;25.70;80.10;;;;;;5031258;28;20431;-48
2021/05/11 11:50:36;;;;;;;5.32;3.13;;;25.50;80.60;;;;;;5032956;28;20060;-50
2021/05/11 11:53:21;;;;;;;6.93;3.15;;;25.40;80.50;;;;;;5032331;28;20484;-49
2021/05/11 11:58:37;;;;;;;8.45;3.13;;;25.40;79.70;;;;;;5008000;28;20563;-49
2021/05/11 12:01:17;;;;;;;7.25;2.95;;;25.60;79.00;;;;;;5031269;28;20569;-49
2021/05/11 12:03:46;;;;;;;6.57;3.63;;;25.70;79.90;;;;;;5014843;28;20095;-50
2021/05/11 12:06:27;;;;;;;8.75;3.63;;;25.70;80.90;;;;;;5015469;28;20049;-48
2021/05/11 12:08:56;;;;;;;6.38;2.75;;;25.80;78.90;;;;;;5031179;28;20061;-64
2021/05/11 12:11:24;;;;;;;6.45;3.28;;;25.90;78.70;;;;;;5015229;28;20049;-51
2021/05/11 12:13:52;;;;;;;6.18;2.10;;;25.90;79.90;;;;;;5014850;28;20407;-50
2021/05/11 12:16:23;;;;;;;8.85;3.13;;;25.70;76.50;;;;;;5015427;28;20381;-48
2021/05/11 12:21:35;;;;;;;6.88;3.45;;;25.60;77.50;;;;;;5032656;28;20053;-50
2021/05/11 12:24:08;;;;;;;6.88;2.83;;;25.60;78.30;;;;;;5031926;28;20057;-49
2021/05/11 12:26:37;;;;;;;6.05;2.65;;;25.60;78.90;;;;;;5015113;28;20050;-51
2021/05/11 12:29:10;;;;;;;4.68;2.53;;;25.60;77.80;;;;;;5031642;28;20069;-49
2021/05/11 12:31:43;;;;;;;5.65;3.22;;;25.60;76.30;;;;;;5012023;28;20053;-47
2021/05/11 12:34:15;;;;;;;7.47;3.85;;;25.50;76.80;;;;;;5029355;28;20088;-49
2021/05/11 12:36:48;;;;;;;12.05;3.15;;;25.40;79.10;;;;;;5011464;28;20053;-47
2021/05/11 12:39:32;;;;;;;7.47;3.50;;;25.30;79.30;;;;;;5029986;28;20075;-47
2021/05/11 12:42:16;;;;;;;12.93;4.25;;;25.40;80.20;;;;;;5032398;28;20049;-48
2021/05/11 12:45:06;;;;;;;10.15;3.55;;;25.40;81.50;;;;;;5032065;28;20129;-48
2021/05/11 12:47:41;;;;;;;5.72;3.25;;;25.50;80.40;;;;;;5031011;28;20440;-48
2021/05/11 12:50:29;;;;;;;8.00;3.33;;;25.70;80.90;;;;;;5044465;28;20072;-49
2021/05/11 12:53:03;;;;;;;8.07;3.67;;;25.50;80.50;;;;;;4997810;28;20540;-50
2021/05/11 12:56:29;;;;;;;6.00;3.30;;;25.30;80.40;;;;;;5032285;28;20052;-49
2021/05/11 13:02:04;;;;;;;18.65;4.30;;;25.40;79.40;;;;;;5032008;28;20057;-49
2021/05/11 13:04:57;;;;;;;8.57;4.05;;;25.30;78.60;;;;;;5030803;28;20095;-50
2021/05/11 13:16:09;;;;;;;5.05;2.67;;;25.70;75.00;;;;;;4998582;28;20057;-52
2021/05/11 13:26:52;;;;;;;6.70;3.08;;;25.50;75.90;;;;;;4998512;28;20137;-54
2021/05/11 13:29:40;;;;;;;5.90;3.25;;;25.50;75.90;;;;;;5032495;28;20064;-48
2021/05/11 13:32:17;;;;;;;8.90;3.47;;;25.40;76.90;;;;;;5017871;28;20052;-51
2021/05/11 13:34:45;;;;;;;6.30;3.30;;;25.40;76.40;;;;;;5015314;28;20045;-50
2021/05/11 13:37:14;;;;;;;8.60;3.72;;;25.50;76.60;;;;;;5033439;28;20072;-49
2021/05/11 13:39:42;;;;;;;7.43;3.72;;;25.50;78.50;;;;;;5035075;28;20045;-49
2021/05/11 13:42:10;;;;;;;6.13;2.88;;;25.40;78.20;;;;;;5017369;28;20041;-48
2021/05/11 13:44:38;;;;;;;11.45;4.15;;;25.50;77.30;;;;;;5016676;28;20111;-50
2021/05/11 13:47:06;;;;;;;9.10;3.13;;;25.50;77.90;;;;;;5033585;28;20057;-54
2021/05/11 13:49:34;;;;;;;8.32;3.40;;;25.40;77.60;;;;;;5033336;28;20045;-48
2021/05/11 13:52:02;;;;;;;6.32;3.42;;;25.20;78.20;;;;;;5035098;28;20054;-50
2021/05/11 13:54:30;;;;;;;6.05;2.80;;;25.20;78.20;;;;;;5033357;28;20053;-48
2021/05/11 14:02:28;;;;;;;5.93;3.22;;;25.00;73.80;;;;;;5016812;28;20057;-48
2021/05/11 14:04:56;;;;;;;6.40;2.83;;;24.90;76.20;;;;;;5032465;28;20075;-51
2021/05/11 14:07:24;;;;;;;7.85;3.35;;;24.90;79.20;;;;;;5017213;28;20078;-47
2021/05/11 14:09:52;;;;;;;7.05;3.03;;;24.90;79.10;;;;;;5034978;28;20125;-51
2021/05/11 14:12:20;;;;;;;6.43;3.13;;;24.80;76.60;;;;;;5034028;28;20407;-47
2021/05/11 14:14:48;;;;;;;8.90;2.90;;;24.60;79.40;;;;;;5011722;28;20084;-48
2021/05/11 14:17:16;;;;;;;6.75;2.78;;;24.60;80.30;;;;;;5014692;28;20135;-48
2021/05/11 14:19:46;;;;;;;11.32;3.88;;;24.60;78.80;;;;;;5034591;28;20108;-50
2021/05/11 14:22:14;;;;;;;4.90;3.03;;;24.50;78.70;;;;;;5016914;28;20141;-48
2021/05/11 14:24:42;;;;;;;7.28;3.08;;;24.50;77.20;;;;;;5033167;28;20041;-49
2021/05/11 14:27:10;;;;;;;5.63;3.30;;;24.50;76.80;;;;;;5032542;28;20049;-51
2021/05/11 14:29:39;;;;;;;5.97;2.40;;;24.60;75.60;;;;;;4997432;28;20045;-55
2021/05/11 14:32:07;;;;;;;5.03;2.83;;;24.50;75.70;;;;;;5009989;28;20067;-51
2021/05/11 14:34:35;;;;;;;13.98;4.03;;;24.50;78.10;;;;;;5033013;28;20054;-50
2021/05/11 14:37:04;;;;;;;7.97;3.35;;;24.50;77.90;;;;;;5032834;28;20057;-53
2021/05/11 14:39:32;;;;;;;9.05;4.78;;;24.50;78.10;;;;;;5032923;28;20057;-51
2021/05/11 14:42:00;;;;;;;9.95;3.63;;;24.50;78.50;;;;;;5032670;28;20081;-53
2021/05/11 14:44:28;;;;;;;6.15;3.58;;;24.50;79.60;;;;;;5029653;28;20147;-52
2021/05/11 14:46:56;;;;;;;9.38;4.55;;;24.50;80.20;;;;;;5031917;28;20049;-60
2021/05/11 14:49:25;;;;;;;5.82;3.53;;;24.50;82.10;;;;;;5014661;28;20138;-49
2021/05/11 14:51:53;;;;;;;11.65;4.05;;;24.50;81.20;;;;;;5028356;28;20491;-47
2021/05/11 14:54:21;;;;;;;11.18;2.88;;;24.50;77.80;;;;;;5015890;28;20045;-48
2021/05/11 14:56:49;;;;;;;7.63;3.85;;;24.30;76.80;;;;;;4999853;28;20747;-49
2021/05/11 14:59:19;;;;;;;6.18;3.28;;;24.20;79.00;;;;;;5032899;28;20068;-48
2021/05/11 15:01:47;;;;;;;7.25;4.30;;;24.20;80.20;;;;;;5032452;28;20415;-47
2021/05/11 15:04:15;;;;;;;8.48;3.88;;;24.20;80.20;;;;;;5031916;28;20046;-49
2021/05/11 15:06:43;;;;;;;8.48;5.28;;;24.20;81.80;;;;;;5015983;28;20045;-49
2021/05/11 15:09:12;;;;;;;8.48;3.85;;;24.10;81.60;;;;;;5031768;28;20511;-53
2021/05/11 15:11:40;;;;;;;15.05;4.20;;;24.10;82.20;;;;;;5025003;28;20030;-53
2021/05/11 15:14:12;;;;;;;9.30;3.72;;;24.00;82.40;;;;;;5029347;28;20076;-48
2021/05/11 15:16:40;;;;;;;7.60;3.50;;;24.10;80.80;;;;;;5031235;28;20049;-47
2021/05/11 15:19:10;;;;;;;7.32;3.00;;;24.00;79.70;;;;;;5032791;28;20045;-52
2021/05/11 15:21:39;;;;;;;6.57;3.17;;;23.90;80.20;;;;;;5012378;28;20073;-50
2021/05/11 15:24:09;;;;;;;7.10;3.63;;;23.90;80.30;;;;;;5028227;28;20080;-48
2021/05/11 15:26:37;;;;;;;5.85;3.35;;;23.80;80.70;;;;;;5032297;28;20053;-48
2021/05/11 15:29:06;;;;;;;7.00;3.22;;;23.70;79.40;;;;;;5031440;28;20056;-47
2021/05/11 15:31:34;;;;;;;8.45;3.67;;;23.70;80.80;;;;;;5015468;28;20056;-48
2021/05/11 15:34:02;;;;;;;7.05;2.55;;;23.70;81.20;;;;;;5031439;28;20044;-50
2021/05/11 15:36:33;;;;;;;6.32;3.50;;;23.70;81.20;;;;;;5031991;28;20387;-50
2021/05/11 15:39:01;;;;;;;12.98;3.65;;;23.70;81.80;;;;;;5031170;28;20132;-49
2021/05/11 15:41:29;;;;;;;10.90;3.55;;;23.60;82.00;;;;;;5031665;28;20484;-49
2021/05/11 15:43:57;;;;;;;7.30;3.42;;;23.50;82.10;;;;;;5014914;28;20041;-47
2021/05/11 15:46:25;;;;;;;6.85;3.58;;;23.30;82.70;;;;;;5012833;28;20052;-51
2021/05/11 15:48:53;;;;;;;7.38;4.03;;;23.30;83.00;;;;;;5013096;28;20037;-49
2021/05/11 15:51:21;;;;;;;6.07;3.42;;;23.20;83.40;;;;;;5031080;28;20119;-51
2021/05/11 15:53:49;;;;;;;6.10;3.65;;;23.10;84.60;;;;;;5014991;28;20491;-48
2021/05/11 15:56:17;;;;;;;8.80;3.35;;;23.00;85.60;;;;;;5015465;28;20049;-47
2021/05/11 15:58:46;;;;;;;10.55;5.22;;;23.00;85.90;;;;;;5015171;28;20530;-48
2021/05/11 16:01:14;;;;;;;9.20;4.53;;;23.00;85.80;;;;;;5031188;28;20112;-52
2021/05/11 16:03:41;;;;;;;6.55;3.72;;;22.90;83.90;;;;;;5031019;28;20053;-49
2021/05/11 16:06:12;;;;;;;8.98;4.18;;;22.70;84.50;;;;;;5031339;28;20045;-47
2021/05/11 16:08:40;;;;;;;9.05;3.38;;;22.60;83.50;;;;;;5030975;28;20407;-51
2021/05/11 16:11:08;;;;;;;7.75;4.70;;;22.50;82.80;;;;;;5031139;28;20395;-49
2021/05/11 16:13:39;;;;;;;8.32;5.43;;;22.50;82.60;;;;;;4998699;28;20050;-46
2021/05/11 16:16:07;;;;;;;10.82;8.38;;;22.50;82.70;;;;;;5015354;28;20480;-46
2021/05/11 16:18:38;;;;;;;13.70;8.05;;;22.40;82.60;;;;;;5030858;28;20057;-47
2021/05/11 16:21:06;;;;;;;15.68;9.85;;;22.50;82.80;;;;;;5032454;28;20485;-47
2021/05/11 16:23:34;;;;;;;13.13;8.43;;;22.50;83.00;;;;;;5030857;28;20049;-48
2021/05/11 16:26:03;;;;;;;13.27;4.80;;;22.40;82.70;;;;;;5032620;28;20434;-46
2021/05/11 16:28:30;;;;;;;5.10;3.30;;;22.40;82.60;;;;;;5030970;28;20096;-46
2021/05/11 16:30:59;;;;;;;12.35;5.47;;;22.40;83.20;;;;;;5031177;28;20050;-47
2021/05/11 16:33:28;;;;;;;16.45;10.13;;;22.20;82.60;;;;;;5014610;28;20458;-47
2021/05/11 16:35:56;;;;;;;14.70;10.60;;;22.10;82.50;;;;;;5015269;28;20495;-46
2021/05/11 16:38:24;;;;;;;16.65;10.13;;;22.10;82.70;;;;;;5030979;28;20053;-47
2021/05/11 16:40:52;;;;;;;7.45;4.13;;;22.10;83.00;;;;;;4998863;28;20049;-46
2021/05/11 16:43:22;;;;;;;6.97;3.42;;;21.90;82.70;;;;;;5014423;28;20054;-46
2021/05/11 16:45:50;;;;;;;8.60;2.92;;;21.90;82.90;;;;;;5018956;28;20175;-46
2021/05/11 16:48:18;;;;;;;6.80;3.22;;;21.90;83.70;;;;;;5034544;28;20467;-47
2021/05/11 16:50:46;;;;;;;5.55;4.93;;;21.90;84.10;;;;;;5018887;28;20496;-46
2021/05/11 16:53:16;;;;;;;8.90;3.00;;;21.80;83.90;;;;;;5035676;28;20120;-46
2021/05/11 16:55:44;;;;;;;6.95;5.22;;;21.70;84.60;;;;;;5036090;28;20064;-48
2021/05/11 16:58:13;;;;;;;17.77;9.60;;;21.70;85.30;;;;;;5018498;28;20046;-50
2021/05/11 17:00:44;;;;;;;15.00;7.85;;;21.70;85.50;;;;;;5018676;28;20055;-48